Time;durP1;ratioP1;P1;durP2;ratioP2;P2;SDS_P1;SDS_P2;PMS_P1;PMS_P2;Temp;Humidity;BMP_temperature;BMP_pressure;BME280_temperature;BME280_humidity;BME280_pressure;Samples;Min_cycle;Max_cycle;Signal;HPM_P1;HPM_P2
2024/01/12 00:03:48;;;;;;;25.63;16.83;;;;;;;-1.53;44.13;101039.09;10426239;28;20232;-34
2024/01/12 00:08:50;;;;;;;24.50;16.07;;;;;;;-1.66;44.84;101020.47;10390185;28;20318;-34
2024/01/12 00:13:52;;;;;;;22.60;15.53;;;;;;;-1.58;44.31;101003.41;10400767;28;20237;-34
2024/01/12 00:18:54;;;;;;;24.03;16.27;;;;;;;-1.95;45.32;100991.25;10399446;28;20239;-34
2024/01/12 00:23:55;;;;;;;22.27;15.23;;;;;;;-1.15;43.78;100939.16;10401427;28;20233;-34
2024/01/12 00:28:57;;;;;;;21.23;14.97;;;;;;;-0.43;42.79;100874.84;10402334;28;20227;-33
2024/01/12 00:33:59;;;;;;;21.23;13.80;;;;;;;-0.57;43.30;100836.13;10400558;28;20584;-34
2024/01/12 00:39:01;;;;;;;19.50;13.17;;;;;;;0.24;42.32;100743.72;10383312;28;20237;-34
2024/01/12 00:44:04;;;;;;;19.67;14.40;;;;;;;-0.93;43.27;101021.16;10400355;28;20330;-34
2024/01/12 00:49:06;;;;;;;21.87;15.07;;;;;;;-0.51;42.96;100972.53;10399041;28;20235;-34
2024/01/12 00:54:08;;;;;;;21.13;14.87;;;;;;;-0.29;43.41;100853.00;10402139;28;20286;-34
2024/01/12 00:59:09;;;;;;;20.37;13.30;;;;;;;0.48;41.65;100790.56;10380892;28;20273;-33
2024/01/12 01:04:11;;;;;;;20.33;14.10;;;;;;;0.82;41.63;100735.78;10394026;28;20256;-32
2024/01/12 01:09:13;;;;;;;21.60;13.87;;;;;;;1.15;40.60;100761.78;10401590;28;20248;-33
2024/01/12 01:14:15;;;;;;;24.20;14.47;;;;;;;-1.29;42.80;101187.59;10394714;28;20624;-34
2024/01/12 01:19:17;;;;;;;20.83;15.60;;;;;;;0.41;41.12;101006.06;10399098;28;20234;-33
2024/01/12 01:24:19;;;;;;;19.27;13.17;;;;;;;0.44;41.34;100933.91;10400836;28;20306;-33
2024/01/12 01:29:21;;;;;;;19.83;13.50;;;;;;;-0.74;43.23;101120.09;10402090;28;20436;-33
2024/01/12 01:34:23;;;;;;;19.60;13.43;;;;;;;0.63;41.78;100841.44;10395212;28;20720;-34
2024/01/12 01:39:25;;;;;;;16.50;12.60;;;;;;;0.43;42.53;100874.28;10399121;28;20239;-34
2024/01/12 01:44:27;;;;;;;20.03;13.87;;;;;;;-0.38;44.46;100882.44;10378913;28;20271;-34
2024/01/12 01:49:29;;;;;;;18.33;12.63;;;;;;;-1.64;45.47;101190.09;10398281;28;20326;-34
2024/01/12 01:54:33;;;;;;;17.47;13.10;;;;;;;-1.58;45.09;101202.06;10398072;28;20242;-34
2024/01/12 01:59:35;;;;;;;18.57;13.37;;;;;;;-0.80;44.43;101073.97;10399133;28;20217;-34
2024/01/12 02:04:37;;;;;;;20.07;13.80;;;;;;;-0.17;44.56;100835.66;10397266;28;20236;-34
2024/01/12 02:09:40;;;;;;;18.87;12.40;;;;;;;-1.04;44.90;101091.81;10399031;28;20212;-34
2024/01/12 02:14:42;;;;;;;17.53;12.70;;;;;;;0.32;44.24;100745.88;10399056;28;20250;-34
2024/01/12 02:19:44;;;;;;;20.90;12.80;;;;;;;-1.01;45.36;100997.06;10403964;28;20639;-33
2024/01/12 02:24:45;;;;;;;20.77;14.00;;;;;;;-0.96;46.04;100900.44;10398832;28;20244;-32
2024/01/12 02:29:52;;;;;;;20.00;13.17;;;;;;;-1.36;47.02;100960.34;10391631;28;20628;-33
2024/01/12 02:34:54;;;;;;;20.00;13.20;;;;;;;-1.34;46.08;101047.78;10398870;28;20598;-34
2024/01/12 02:39:56;;;;;;;18.77;13.60;;;;;;;-0.58;45.36;100887.00;10402451;28;20268;-34
2024/01/12 02:44:58;;;;;;;20.00;13.60;;;;;;;-0.50;46.27;100820.88;10396321;28;20239;-34
2024/01/12 02:50:00;;;;;;;18.77;12.97;;;;;;;-0.53;45.11;100958.63;10405182;28;20325;-34
2024/01/12 02:55:05;;;;;;;17.23;12.10;;;;;;;-0.48;45.22;100904.00;10387627;28;20244;-34
2024/01/12 03:00:07;;;;;;;16.60;12.27;;;;;;;0.85;43.55;100715.34;10399629;28;20347;-34
2024/01/12 03:05:09;;;;;;;17.83;12.80;;;;;;;0.11;43.90;100900.72;10395413;28;20338;-33
2024/01/12 03:10:11;;;;;;;16.43;12.70;;;;;;;0.79;43.19;100759.69;10400948;28;20231;-34
2024/01/12 03:15:13;;;;;;;20.57;12.80;;;;;;;0.07;44.17;100859.69;10398488;28;21164;-34
2024/01/12 03:20:15;;;;;;;19.63;13.20;;;;;;;-1.04;45.10;101095.31;10398747;28;20305;-34
2024/01/12 03:25:17;;;;;;;18.60;12.67;;;;;;;-0.74;44.72;101064.91;10401772;28;20239;-34
2024/01/12 03:30:18;;;;;;;16.80;12.93;;;;;;;0.86;43.53;100710.91;10402981;28;20793;-34
2024/01/12 03:35:20;;;;;;;17.30;12.60;;;;;;;0.14;44.58;100853.16;10399464;28;20303;-34
2024/01/12 03:40:22;;;;;;;17.23;13.93;;;;;;;1.06;43.22;100736.81;10397942;28;20239;-34
2024/01/12 03:45:24;;;;;;;17.17;13.10;;;;;;;0.25;44.99;100778.78;10398673;28;20721;-34
2024/01/12 03:50:26;;;;;;;20.50;14.40;;;;;;;0.09;45.08;100821.84;10404067;28;20235;-34
2024/01/12 03:55:27;;;;;;;19.13;12.30;;;;;;;1.27;42.76;100720.56;10403730;28;20263;-34
2024/01/12 04:00:29;;;;;;;18.37;12.30;;;;;;;0.20;44.38;100894.91;10403238;28;20228;-34
2024/01/12 04:05:31;;;;;;;17.70;12.77;;;;;;;-0.56;45.14;101074.50;10400878;28;20236;-34
2024/01/12 04:10:32;;;;;;;21.23;13.53;;;;;;;0.06;45.90;100745.69;10408024;28;20239;-34
2024/01/12 04:15:34;;;;;;;19.27;13.30;;;;;;;0.41;44.67;100757.63;10426688;28;20685;-34
2024/01/12 04:20:36;;;;;;;18.87;12.87;;;;;;;0.17;45.20;100826.63;10443415;28;20331;-32
2024/01/12 04:25:37;;;;;;;18.17;13.53;;;;;;;-0.17;45.97;100833.88;10441629;28;20289;-34
2024/01/12 04:30:39;;;;;;;19.23;13.00;;;;;;;0.57;44.86;100744.38;10444471;28;20231;-44
2024/01/12 04:35:41;;;;;;;19.90;13.43;;;;;;;0.07;45.37;100841.28;10438178;28;20234;-44
2024/01/12 04:40:43;;;;;;;21.40;13.60;;;;;;;0.21;44.61;100846.59;10443160;28;20585;-40
2024/01/12 04:45:44;;;;;;;20.37;14.00;;;;;;;-0.92;45.58;101072.81;10443308;28;20240;-42
2024/01/12 04:50:46;;;;;;;21.37;13.70;;;;;;;-0.07;44.95;100906.09;10439773;28;20251;-41
2024/01/12 04:55:49;;;;;;;20.63;13.87;;;;;;;-0.43;44.67;100990.56;10438367;28;20235;-43
2024/01/12 05:00:50;;;;;;;20.30;14.17;;;;;;;-0.55;46.23;100881.63;10441101;28;20228;-43
2024/01/12 05:05:52;;;;;;;19.53;13.43;;;;;;;-0.76;46.68;100878.34;10434014;28;20620;-44
2024/01/12 05:10:54;;;;;;;21.60;14.00;;;;;;;-0.75;46.09;100898.47;10441023;28;20238;-41
2024/01/12 05:15:56;;;;;;;21.40;14.73;;;;;;;-0.85;47.43;100756.19;10435711;28;20243;-41
2024/01/12 05:20:58;;;;;;;23.13;15.43;;;;;;;-2.58;49.72;101057.06;10442070;28;20259;-45
2024/01/12 05:26:00;;;;;;;21.90;16.40;;;;;;;-1.70;49.68;100767.78;10438629;28;20721;-44
2024/01/12 05:31:01;;;;;;;22.97;16.27;;;;;;;-1.31;48.84;100763.13;10442500;28;20242;-43
2024/01/12 05:36:03;;;;;;;24.17;16.63;;;;;;;-2.05;49.55;100833.44;10439049;28;20249;-43
2024/01/12 05:41:05;;;;;;;21.77;15.13;;;;;;;-2.21;48.65;100976.72;10440900;28;20261;-43
2024/01/12 05:46:07;;;;;;;20.67;15.67;;;;;;;-1.53;47.78;100815.94;10439037;28;20239;-43
2024/01/12 05:51:12;;;;;;;22.80;16.10;;;;;;;-0.74;46.52;100687.22;10437893;28;20223;-43
2024/01/12 05:56:14;;;;;;;23.50;16.23;;;;;;;-2.00;48.12;100917.13;10438830;28;20241;-44
2024/01/12 06:01:15;;;;;;;21.97;15.43;;;;;;;-0.41;46.13;100641.53;10437016;28;20233;-42
2024/01/12 06:06:17;;;;;;;24.50;16.67;;;;;;;-0.91;46.94;100705.75;10432859;28;20229;-43
2024/01/12 06:11:19;;;;;;;26.47;16.33;;;;;;;-1.29;47.33;100783.13;10435041;28;20243;-42
2024/01/12 06:16:21;;;;;;;27.30;17.03;;;;;;;-2.20;48.09;100902.38;10436415;28;20732;-43
2024/01/12 06:21:23;;;;;;;22.43;15.47;;;;;;;-2.21;48.19;100925.13;10439336;28;20232;-43
2024/01/12 06:26:24;;;;;;;26.03;16.97;;;;;;;-1.64;47.66;100785.00;10441118;28;20669;-42
2024/01/12 06:31:32;;;;;;;26.27;16.57;;;;;;;-2.56;48.58;101027.25;10442984;28;20238;-40
2024/01/12 06:36:33;;;;;;;24.50;16.00;;;;;;;-2.92;48.78;101124.00;10444523;28;20238;-40
2024/01/12 06:41:42;;;;;;;22.13;15.43;;;;;;;-1.69;48.11;100798.38;10444183;28;20325;-43
2024/01/12 06:46:45;;;;;;;24.93;16.80;;;;;;;-1.99;48.36;100887.34;10438896;28;20290;-42
2024/01/12 06:51:46;;;;;;;25.27;17.53;;;;;;;-1.96;48.15;100911.66;10445027;28;20236;-43
2024/01/12 06:56:51;;;;;;;28.13;17.20;;;;;;;-1.29;46.34;100872.41;10442631;28;20305;-44
2024/01/12 07:01:53;;;;;;;20.00;15.70;;;;;;;-2.26;47.64;101033.78;10430872;28;20226;-41
2024/01/12 07:06:55;;;;;;;28.47;17.43;;;;;;;-1.53;47.17;100832.56;10441390;28;20333;-43
2024/01/12 07:11:57;;;;;;;22.57;15.27;;;;;;;-1.62;47.74;100776.09;10437632;28;20239;-42
2024/01/12 07:16:59;;;;;;;27.40;18.27;;;;;;;-1.84;48.25;100807.88;10441368;28;20253;-42
2024/01/12 07:22:01;;;;;;;26.23;17.70;;;;;;;-1.32;47.64;100707.13;10445277;28;20313;-42
2024/01/12 07:27:04;;;;;;;27.67;18.30;;;;;;;-2.20;49.12;100842.91;10439363;28;20273;-43
2024/01/12 07:32:05;;;;;;;27.50;18.07;;;;;;;-2.84;50.00;100980.44;10441342;28;20237;-43
2024/01/12 07:37:07;;;;;;;23.03;16.40;;;;;;;-2.32;50.08;100809.44;10439583;28;20309;-44
2024/01/12 07:42:09;;;;;;;26.87;17.27;;;;;;;-3.19;50.51;101077.06;10441538;28;20729;-45
2024/01/12 07:47:11;;;;;;;24.67;16.60;;;;;;;-2.69;50.39;100922.09;10450356;28;20625;-42
2024/01/12 07:52:13;;;;;;;27.17;18.17;;;;;;;-2.21;49.71;100825.47;10448204;28;20760;-45
2024/01/12 07:57:20;;;;;;;28.00;17.50;;;;;;;-1.78;50.18;100705.22;10451611;28;20317;-42
2024/01/12 08:02:22;;;;;;;25.47;16.93;;;;;;;-2.22;49.53;100909.44;10449961;28;20227;-45
2024/01/12 08:07:24;;;;;;;28.00;17.47;;;;;;;-2.17;49.75;100870.72;10451971;28;20291;-44
2024/01/12 08:12:26;;;;;;;24.33;16.63;;;;;;;-1.64;49.07;100756.97;10445010;28;20234;-42
2024/01/12 08:17:27;;;;;;;22.97;15.70;;;;;;;-1.64;49.35;100720.22;10451888;28;20247;-43
2024/01/12 08:22:29;;;;;;;25.03;17.37;;;;;;;-3.23;50.72;101104.28;10442460;28;20316;-43
2024/01/12 08:27:31;;;;;;;24.87;16.40;;;;;;;-2.60;49.22;100996.84;10449532;28;20250;-44
2024/01/12 08:32:33;;;;;;;26.70;16.90;;;;;;;-2.07;49.82;100782.81;10442668;28;20680;-43
2024/01/12 08:37:35;;;;;;;24.90;18.10;;;;;;;-1.06;47.50;100715.34;10424371;28;20252;-45
2024/01/12 08:42:39;;;;;;;22.60;15.83;;;;;;;-0.75;46.96;100774.91;10444755;28;20257;-43
2024/01/12 08:47:41;;;;;;;25.63;16.67;;;;;;;-1.13;47.86;100824.31;10448752;28;20242;-44
2024/01/12 08:52:44;;;;;;;22.60;15.20;;;;;;;-0.37;46.79;100778.94;10442013;28;20238;-43
2024/01/12 08:57:46;;;;;;;26.00;18.00;;;;;;;-0.20;47.09;100741.97;10435281;28;20235;-42
2024/01/12 09:02:47;;;;;;;27.13;17.30;;;;;;;0.16;46.18;100732.81;10434764;28;20241;-42
2024/01/12 09:07:49;;;;;;;25.23;16.13;;;;;;;0.74;45.72;100751.22;10451439;28;20260;-44
2024/01/12 09:12:51;;;;;;;22.97;16.67;;;;;;;0.18;45.71;100846.75;10452717;28;20326;-46
2024/01/12 09:17:54;;;;;;;30.57;18.30;;;;;;;-0.94;47.75;100982.69;10440390;28;20271;-43
2024/01/12 09:22:56;;;;;;;27.93;18.97;;;;;;;-1.32;47.00;101101.06;10424723;28;20306;-44
2024/01/12 09:27:58;;;;;;;30.23;17.70;;;;;;;-0.93;47.37;100984.38;10444167;28;20231;-42
2024/01/12 09:33:00;;;;;;;25.77;17.10;;;;;;;-0.44;47.14;100899.41;10437918;28;20625;-44
2024/01/12 09:38:02;;;;;;;25.23;16.63;;;;;;;-0.53;46.86;101034.91;10442329;28;20295;-44
2024/01/12 09:43:12;;;;;;;24.70;16.23;;;;;;;-0.59;47.13;100958.94;10441578;28;20255;-43
2024/01/12 09:48:14;;;;;;;24.33;16.77;;;;;;;0.00;46.30;101006.59;10443172;28;20243;-42
2024/01/12 09:53:16;;;;;;;27.80;15.10;;;;;;;-0.64;46.12;101123.97;10438047;28;20263;-46
2024/01/12 09:58:21;;;;;;;18.87;13.97;;;;;;;-0.57;47.09;101025.47;10435946;28;20246;-42
2024/01/12 10:03:25;;;;;;;21.23;14.63;;;;;;;0.32;45.76;100869.63;10439087;28;20703;-41
2024/01/12 10:08:37;;;;;;;19.93;13.60;;;;;;;0.83;45.26;100838.47;10444824;28;20243;-43
2024/01/12 10:13:39;;;;;;;18.00;12.67;;;;;;;0.82;44.37;100971.16;10437407;28;20330;-45
2024/01/12 10:18:42;;;;;;;18.97;13.73;;;;;;;0.46;45.63;100940.78;10437436;28;20744;-43
2024/01/12 10:23:44;;;;;;;23.17;14.47;;;;;;;0.22;45.80;100979.06;10443430;28;20242;-43
2024/01/12 10:28:46;;;;;;;19.83;13.47;;;;;;;0.24;45.82;101078.09;10437427;28;20619;-37
2024/01/12 10:33:47;;;;;;;20.53;14.60;;;;;;;1.22;45.25;100828.16;10425374;28;20327;-43
2024/01/12 10:38:53;;;;;;;20.67;14.60;;;;;;;-0.02;46.18;100995.31;10442886;28;20705;-42
2024/01/12 10:43:59;;;;;;;24.67;15.80;;;;;;;-0.47;46.18;101086.31;10442397;28;20254;-45
2024/01/12 10:49:15;;;;;;;23.27;14.60;;;;;;;-0.23;45.72;101063.13;10441918;28;20224;-41
2024/01/12 10:54:27;;;;;;;24.03;15.80;;;;;;;1.04;45.09;100883.69;10422044;28;20305;-45
2024/01/12 10:59:29;;;;;;;19.87;15.97;;;;;;;-0.29;45.68;101059.03;10440082;28;20205;-43
2024/01/12 11:06:18;;;;;;;23.50;14.93;;;;;;;-0.76;46.77;101053.63;10596275;27;20355;-73
2024/01/12 11:11:22;;;;;;;28.23;17.23;;;;;;;0.14;45.39;100995.31;10529713;27;20659;-71
2024/01/12 11:16:24;;;;;;;24.70;16.10;;;;;;;0.56;45.23;100946.38;10517613;28;20234;-72
2024/01/12 11:21:26;;;;;;;19.80;14.83;;;;;;;0.69;44.63;100984.19;10507476;27;20258;-72
2024/01/12 11:26:28;;;;;;;22.10;14.60;;;;;;;-0.09;45.83;101092.16;10492583;28;20240;-73
2024/01/12 11:31:30;;;;;;;23.57;15.43;;;;;;;0.71;45.51;100870.81;10531279;28;20237;-72
2024/01/12 11:36:32;;;;;;;18.77;14.07;;;;;;;1.17;44.32;100984.00;10529445;28;20243;-72
2024/01/12 11:41:33;;;;;;;21.20;15.20;;;;;;;0.97;44.64;100948.28;10514748;28;20270;-72
2024/01/12 11:46:35;;;;;;;25.60;19.10;;;;;;;1.23;43.91;101122.53;10521030;28;20716;-72
2024/01/12 11:51:37;;;;;;;18.87;13.37;;;;;;;1.32;44.70;100979.59;10521779;28;20252;-72
2024/01/12 11:56:39;;;;;;;19.20;14.57;;;;;;;1.33;44.69;100996.28;10491261;28;20239;-72
2024/01/12 12:01:40;;;;;;;20.70;13.93;;;;;;;0.68;44.94;101150.31;10473955;28;20254;-72
2024/01/12 12:06:47;;;;;;;13.83;11.07;;;;;;;2.59;44.08;100945.09;10474154;28;20249;-72
2024/01/12 12:11:49;;;;;;;11.90;9.60;;;;;;;2.49;44.24;100906.03;10472148;28;20249;-72
2024/01/12 12:16:51;;;;;;;11.27;8.97;;;;;;;1.74;44.45;101041.22;10450470;28;20248;-72
2024/01/12 12:21:53;;;;;;;7.47;6.67;;;;;;;1.29;45.26;101097.56;10449481;28;20781;-73
2024/01/12 12:26:54;;;;;;;10.17;7.43;;;;;;;1.97;44.51;101008.06;10493748;28;20238;-73
2024/01/12 12:32:00;;;;;;;11.87;7.63;;;;;;;2.11;44.52;100937.66;10508439;28;20753;-73
2024/01/12 12:37:08;;;;;;;10.27;7.90;;;;;;;1.05;46.57;101006.69;10499388;28;20245;-74
2024/01/12 12:42:11;;;;;;;11.10;9.20;;;;;;;1.40;45.98;100936.91;10483654;28;20619;-73
2024/01/12 12:47:15;;;;;;;11.17;8.80;;;;;;;0.46;47.32;101056.69;10488670;28;20240;-74
2024/01/12 12:52:17;;;;;;;11.53;8.50;;;;;;;1.29;45.98;100965.72;10485125;28;20230;-73
2024/01/12 12:57:18;;;;;;;10.40;7.40;;;;;;;0.66;46.45;101099.47;10483338;28;20612;-74
2024/01/12 13:02:20;;;;;;;12.03;8.80;;;;;;;1.02;45.72;101149.22;10486292;28;20231;-74
2024/01/12 13:07:22;;;;;;;10.43;9.20;;;;;;;1.56;45.02;101015.97;10488800;28;20700;-74
2024/01/12 13:12:23;;;;;;;13.00;8.70;;;;;;;1.78;44.88;100999.63;10484854;28;20233;-74
2024/01/12 13:17:26;;;;;;;12.60;8.97;;;;;;;2.30;44.07;100935.50;10483316;28;20231;-74
2024/01/12 13:22:28;;;;;;;10.27;7.63;;;;;;;2.26;44.55;100978.06;10491574;28;20232;-75
2024/01/12 13:27:30;;;;;;;10.43;8.47;;;;;;;0.36;47.62;101055.50;10488394;28;20731;-74
2024/01/12 13:32:31;;;;;;;12.30;8.67;;;;;;;0.89;46.52;101047.22;10486849;28;20256;-74
2024/01/12 13:37:33;;;;;;;11.50;9.07;;;;;;;0.87;46.31;101082.41;10485326;28;20297;-74
2024/01/12 13:42:35;;;;;;;10.40;8.80;;;;;;;2.14;44.39;100975.28;10486228;28;20787;-74
2024/01/12 13:47:36;;;;;;;11.60;9.30;;;;;;;1.49;44.97;101115.75;10488207;28;20232;-74
2024/01/12 13:52:38;;;;;;;13.33;10.33;;;;;;;0.87;46.21;101115.84;10485137;28;20315;-74
2024/01/12 13:57:40;;;;;;;11.23;9.33;;;;;;;1.42;46.63;100901.59;10482433;28;20262;-74
2024/01/12 14:02:42;;;;;;;13.87;9.67;;;;;;;4.02;42.69;100845.81;10483959;28;20243;-74
2024/01/12 14:07:43;;;;;;;13.80;10.23;;;;;;;0.85;46.64;101154.63;10492938;28;20493;-74
2024/01/12 14:12:46;;;;;;;12.63;10.23;;;;;;;1.04;47.09;100975.97;10484942;28;20322;-74
2024/01/12 14:17:47;;;;;;;13.83;9.73;;;;;;;1.95;45.99;100914.91;10487599;28;20235;-74
2024/01/12 14:22:49;;;;;;;13.27;9.57;;;;;;;1.48;46.02;101060.44;10486076;28;20241;-74
2024/01/12 14:27:52;;;;;;;13.37;10.07;;;;;;;1.09;46.62;101053.97;10482376;28;20265;-74
2024/01/12 14:32:54;;;;;;;14.97;9.93;;;;;;;-0.16;48.31;101253.94;10491602;28;20243;-72
2024/01/12 14:37:56;;;;;;;11.93;9.90;;;;;;;2.08;46.01;100869.19;10489081;28;20717;-74
2024/01/12 14:42:58;;;;;;;11.67;9.73;;;;;;;0.81;47.68;101066.94;10492630;28;20254;-74
2024/01/12 14:48:02;;;;;;;16.60;10.50;;;;;;;3.06;43.75;100991.25;10484576;28;20227;-74
2024/01/12 14:53:12;;;;;;;14.83;11.30;;;;;;;2.33;45.63;100937.09;10481911;28;20266;-73
2024/01/12 14:58:14;;;;;;;14.43;11.70;;;;;;;2.75;45.04;100926.38;10479606;28;20288;-73
2024/01/12 15:03:16;;;;;;;15.13;10.17;;;;;;;1.44;45.85;101210.16;10484940;28;20235;-74
2024/01/12 15:08:18;;;;;;;15.30;10.77;;;;;;;1.54;45.81;101207.78;10484569;28;20303;-74
2024/01/12 15:13:20;;;;;;;13.40;9.97;;;;;;;1.10;47.01;101158.47;10488201;28;20322;-74
2024/01/12 15:18:22;;;;;;;16.03;10.10;;;;;;;2.02;45.99;101012.22;10492516;28;20706;-75
2024/01/12 15:23:25;;;;;;;12.67;9.50;;;;;;;1.09;47.00;101212.16;10482749;28;20776;-75
2024/01/12 15:28:27;;;;;;;14.67;10.53;;;;;;;2.79;44.81;100930.47;10485284;28;20263;-76
2024/01/12 15:33:29;;;;;;;14.63;11.10;;;;;;;2.38;46.03;100942.91;10481677;28;20227;-75
2024/01/12 15:38:31;;;;;;;15.03;11.60;;;;;;;2.49;44.41;101117.44;10484998;28;20766;-74
2024/01/12 15:43:33;;;;;;;14.90;10.43;;;;;;;2.30;46.28;100901.16;10485531;28;20297;-74
2024/01/12 15:48:34;;;;;;;13.17;9.93;;;;;;;1.13;47.29;101118.75;10482448;28;20243;-73
2024/01/12 15:53:39;;;;;;;14.07;9.90;;;;;;;2.05;46.35;101001.44;10489003;28;20281;-73
2024/01/12 15:58:41;;;;;;;13.90;10.30;;;;;;;1.04;47.84;101110.44;10492125;28;20304;-73
2024/01/12 16:03:42;;;;;;;12.33;9.83;;;;;;;2.07;46.73;100894.78;10487339;28;20321;-73
2024/01/12 16:08:44;;;;;;;12.60;9.47;;;;;;;0.65;47.50;101182.94;10490693;28;20659;-73
2024/01/12 16:13:47;;;;;;;14.67;9.83;;;;;;;0.08;48.70;101235.19;10487940;28;20239;-73
2024/01/12 16:18:49;;;;;;;15.27;11.97;;;;;;;1.79;47.82;100869.34;10427566;22;20255;-33
2024/01/12 16:24:04;;;;;;;15.83;10.43;;;;;;;1.57;46.44;101075.69;10417708;28;20244;-35
2024/01/12 16:29:07;;;;;;;15.00;11.50;;;;;;;2.67;45.13;101006.16;10419947;28;20557;-41
2024/01/12 16:34:09;;;;;;;18.67;13.43;;;;;;;2.46;44.65;101141.41;10412835;28;20278;-35
2024/01/12 16:39:12;;;;;;;13.93;10.67;;;;;;;1.91;46.58;101039.28;10417110;28;20228;-39
2024/01/12 16:44:14;;;;;;;17.10;12.00;;;;;;;2.95;45.24;100925.88;10414424;28;20311;-39
2024/01/12 16:49:15;;;;;;;13.97;9.83;;;;;;;1.20;46.39;101278.28;10409351;28;20307;-35
2024/01/12 16:54:17;;;;;;;15.73;10.97;;;;;;;1.49;46.65;101175.56;10415475;28;20212;-40
2024/01/12 16:59:19;;;;;;;13.57;10.70;;;;;;;2.44;45.27;101064.03;10414490;28;20274;-35
2024/01/12 17:04:21;;;;;;;15.63;10.93;;;;;;;2.29;45.59;101086.19;10416568;28;20235;-35
2024/01/12 17:09:23;;;;;;;17.80;12.50;;;;;;;2.87;45.30;100996.91;10414581;28;20276;-44
2024/01/12 17:14:24;;;;;;;16.03;12.00;;;;;;;3.42;44.28;100964.00;10416706;28;20301;-36
2024/01/12 17:19:26;;;;;;;18.43;13.43;;;;;;;1.59;47.13;101145.03;10414810;28;20236;-36
2024/01/12 17:24:28;;;;;;;18.50;13.20;;;;;;;2.43;45.75;101082.63;10414486;28;20235;-39
2024/01/12 17:29:30;;;;;;;15.60;11.77;;;;;;;2.39;46.26;101015.94;10415303;28;20236;-34
2024/01/12 17:34:33;;;;;;;16.20;12.47;;;;;;;1.88;45.88;101203.16;10415390;28;20233;-38
2024/01/12 17:39:34;;;;;;;18.87;13.33;;;;;;;3.41;44.59;100951.75;10413309;28;20309;-36
2024/01/12 17:44:37;;;;;;;17.87;12.63;;;;;;;2.28;45.72;101119.69;10410489;28;20236;-40
2024/01/12 17:49:39;;;;;;;18.07;11.90;;;;;;;2.31;46.46;101008.50;10409886;28;20263;-39
2024/01/12 17:54:41;;;;;;;16.07;12.63;;;;;;;3.07;45.74;100987.63;10409904;28;20210;-39
2024/01/12 17:59:42;;;;;;;18.77;13.00;;;;;;;2.07;45.65;101231.94;10409337;28;20985;-38
2024/01/12 18:04:48;;;;;;;17.27;11.93;;;;;;;2.96;45.54;101019.28;10414412;28;20340;-36
2024/01/12 18:09:49;;;;;;;21.20;11.17;;;;;;;3.23;45.50;100972.41;10411612;28;20316;-36
2024/01/12 18:14:52;;;;;;;13.33;10.57;;;;;;;2.56;46.17;101054.47;10415817;28;20287;-38
2024/01/12 18:19:54;;;;;;;15.43;12.03;;;;;;;1.11;47.94;101228.72;10409051;28;20466;-37
2024/01/12 18:24:56;;;;;;;16.40;11.33;;;;;;;1.98;47.65;101012.41;10406743;28;20263;-36
2024/01/12 18:29:59;;;;;;;15.77;12.03;;;;;;;0.43;49.41;101279.88;10406675;28;20297;-36
2024/01/12 18:35:01;;;;;;;13.97;9.30;;;;;;;2.01;46.76;101129.31;10408447;28;20249;-37
2024/01/12 18:40:03;;;;;;;14.40;10.43;;;;;;;1.91;46.65;101180.06;10407230;28;20590;-35
2024/01/12 18:45:06;;;;;;;15.90;11.53;;;;;;;3.74;44.48;101020.91;10406394;28;20324;-36
2024/01/12 18:50:08;;;;;;;14.20;11.30;;;;;;;1.82;46.03;101312.59;10409506;28;20231;-39
2024/01/12 18:55:10;;;;;;;16.67;11.57;;;;;;;2.64;46.16;101046.88;10410630;28;20206;-38
2024/01/12 19:00:12;;;;;;;15.93;11.57;;;;;;;1.69;47.52;101188.44;10412358;28;20259;-35
2024/01/12 19:05:14;;;;;;;20.13;13.33;;;;;;;2.57;46.35;101073.81;10406581;28;20240;-36
2024/01/12 19:10:16;;;;;;;16.90;12.47;;;;;;;2.01;45.60;101262.19;10403873;28;20282;-39
2024/01/12 19:15:18;;;;;;;19.40;12.40;;;;;;;4.44;42.54;100951.38;10409954;28;20699;-37
2024/01/12 19:20:20;;;;;;;20.80;13.83;;;;;;;2.84;44.77;101028.84;10407053;28;20237;-34
2024/01/12 19:25:22;;;;;;;21.90;15.37;;;;;;;-0.19;48.20;101326.94;10415303;28;20311;-37
2024/01/12 19:30:24;;;;;;;20.70;14.53;;;;;;;2.66;44.70;101126.91;10412351;28;20236;-36
2024/01/12 19:35:26;;;;;;;19.27;15.27;;;;;;;3.10;44.09;101082.66;10412207;28;20225;-34
2024/01/12 19:40:27;;;;;;;17.10;12.93;;;;;;;1.77;45.96;101088.50;10411866;28;20251;-37
2024/01/12 19:45:29;;;;;;;21.23;14.20;;;;;;;2.55;44.57;101073.91;10410272;28;20255;-42
2024/01/12 19:50:31;;;;;;;19.87;13.87;;;;;;;2.30;45.34;101024.47;10411401;28;20283;-37
2024/01/12 19:55:33;;;;;;;19.90;12.93;;;;;;;3.11;43.60;101081.72;10412975;28;20694;-39
2024/01/12 20:00:35;;;;;;;21.07;14.40;;;;;;;3.28;43.62;101017.06;10413131;28;20616;-39
2024/01/12 20:05:37;;;;;;;20.30;14.30;;;;;;;3.60;43.43;100985.69;10415031;28;20591;-40
2024/01/12 20:10:39;;;;;;;17.97;13.63;;;;;;;3.50;42.76;101139.97;10409259;28;20338;-35
2024/01/12 20:15:41;;;;;;;16.80;13.13;;;;;;;4.66;41.32;101026.59;10409815;28;20939;-39
2024/01/12 20:20:42;;;;;;;18.43;15.50;;;;;;;4.09;41.83;101131.44;10410978;28;20880;-36
2024/01/12 20:25:44;;;;;;;24.10;16.07;;;;;;;4.14;41.86;101126.66;10408817;28;20237;-39
2024/01/12 20:30:46;;;;;;;17.47;13.43;;;;;;;3.59;42.82;101140.16;10404458;28;20617;-39
2024/01/12 20:35:48;;;;;;;16.57;12.43;;;;;;;3.37;43.66;101108.19;10407774;28;20234;-38
2024/01/12 20:40:51;;;;;;;24.03;15.13;;;;;;;4.30;42.08;101076.06;10410539;28;20611;-41
2024/01/12 20:45:53;;;;;;;17.10;12.20;;;;;;;4.74;41.61;101062.22;10415348;28;20303;-38
2024/01/12 20:50:56;;;;;;;17.83;12.77;;;;;;;3.65;43.41;101120.38;10402581;28;20325;-39
2024/01/12 20:55:58;;;;;;;19.90;13.97;;;;;;;3.47;43.91;101130.41;10411477;28;20257;-41
2024/01/12 21:01:00;;;;;;;21.00;14.37;;;;;;;3.83;43.71;101044.94;10403327;28;20633;-39
2024/01/12 21:06:02;;;;;;;18.73;12.73;;;;;;;3.61;43.89;101148.00;10410088;28;20750;-37
2024/01/12 21:11:04;;;;;;;19.20;13.43;;;;;;;1.54;46.52;101308.94;10413759;28;20659;-36
2024/01/12 21:16:08;;;;;;;10.83;9.13;;;;;;;0.47;48.96;101284.88;10408940;28;20679;-42
2024/01/12 21:21:11;;;;;;;10.87;8.83;;;;;;;0.95;49.85;101070.56;10411947;28;20323;-37
2024/01/12 21:26:13;;;;;;;11.30;9.20;;;;;;;1.11;48.63;101136.44;10409369;28;20290;-36
2024/01/12 21:31:15;;;;;;;12.10;9.93;;;;;;;2.21;47.22;100986.28;10409263;28;20260;-38
2024/01/12 21:36:17;;;;;;;13.67;10.47;;;;;;;4.32;43.09;101022.03;10407303;28;20232;-41
2024/01/12 21:41:19;;;;;;;12.00;9.23;;;;;;;3.99;43.86;101036.72;10411747;28;20245;-37
2024/01/12 21:46:21;;;;;;;10.80;9.60;;;;;;;2.95;44.62;101234.41;10410703;28;20241;-37
2024/01/12 21:51:23;;;;;;;13.20;9.27;;;;;;;1.60;47.01;101179.25;10404801;28;20706;-41
2024/01/12 21:56:25;;;;;;;12.87;10.07;;;;;;;2.27;45.62;101241.28;10417381;28;20233;-37
2024/01/12 22:01:27;;;;;;;14.87;9.30;;;;;;;3.73;44.79;100943.31;10411835;28;20240;-40
2024/01/12 22:06:29;;;;;;;11.23;9.23;;;;;;;3.89;43.78;101009.22;10420861;28;20679;-44
2024/01/12 22:11:31;;;;;;;10.17;8.47;;;;;;;4.52;42.48;101057.63;10410061;28;20242;-36
2024/01/12 22:16:33;;;;;;;12.77;9.77;;;;;;;3.89;43.74;101079.88;10413961;28;20606;-39
2024/01/12 22:21:35;;;;;;;12.23;9.23;;;;;;;2.31;44.95;101327.31;10402848;28;20279;-38
2024/01/12 22:26:37;;;;;;;13.03;10.17;;;;;;;2.66;46.45;100976.25;10414050;22;20325;-72
2024/01/12 22:31:39;;;;;;;13.10;10.03;;;;;;;5.03;42.05;101003.44;10366656;28;20705;-75
2024/01/12 22:36:41;;;;;;;13.77;10.17;;;;;;;4.77;41.96;101061.97;10355806;28;20226;-71
2024/01/12 22:41:42;;;;;;;31.10;16.57;;;;;;;2.78;44.17;101322.72;10317873;28;20238;-71
2024/01/12 22:46:44;;;;;;;15.97;11.10;;;;;;;4.18;42.86;101118.38;10328115;28;20240;-72
2024/01/12 22:51:46;;;;;;;11.57;9.03;;;;;;;4.21;42.63;101081.06;10330405;28;20713;-75